Time;durP1;ratioP1;P1;durP2;ratioP2;P2;SDS_P1;SDS_P2;PMS_P1;PMS_P2;Temp;Humidity;BMP_temperature;BMP_pressure;BME280_temperature;BME280_humidity;BME280_pressure;Samples;Min_cycle;Max_cycle;Signal;HPM_P1;HPM_P2
2023/01/23 00:02:18;;;;;;;;;;;0.20;99.90;;;;;;5098958;28;19916;-51
2023/01/23 00:04:44;;;;;;;;;;;0.20;99.90;;;;;;5098782;28;19912;-50
2023/01/23 00:07:09;;;;;;;;;;;0.20;99.90;;;;;;5098742;28;19908;-50
2023/01/23 00:09:35;;;;;;;;;;;0.20;99.90;;;;;;5098955;28;20054;-51
2023/01/23 00:12:01;;;;;;;;;;;0.20;99.90;;;;;;5098813;28;20375;-50
2023/01/23 00:14:26;;;;;;;;;;;0.20;99.90;;;;;;5098765;28;19975;-50
2023/01/23 00:16:52;;;;;;;;;;;0.20;99.90;;;;;;5098920;28;19954;-49
2023/01/23 00:19:18;;;;;;;;;;;0.20;99.90;;;;;;5098726;28;19908;-50
2023/01/23 00:21:44;;;;;;;;;;;0.10;99.90;;;;;;5098549;28;19986;-49
2023/01/23 00:24:10;;;;;;;;;;;0.10;99.90;;;;;;5098398;28;19951;-49
2023/01/23 00:26:36;;;;;;;;;;;0.10;99.90;;;;;;5098569;28;19908;-51
2023/01/23 00:29:02;;;;;;;;;;;0.10;99.90;;;;;;5096964;28;19908;-53
2023/01/23 00:31:29;;;;;;;;;;;0.00;99.90;;;;;;5098130;28;19908;-51
2023/01/23 00:33:56;;;;;;;;;;;0.00;99.90;;;;;;5098735;28;19908;-50
2023/01/23 00:36:22;;;;;;;;;;;0.00;99.90;;;;;;5098259;28;19990;-49
2023/01/23 00:38:48;;;;;;;;;;;0.00;99.90;;;;;;5098308;28;19908;-50
2023/01/23 00:41:14;;;;;;;;;;;0.00;99.90;;;;;;5098214;28;20386;-52
2023/01/23 00:43:40;;;;;;;;;;;0.00;99.90;;;;;;5097868;28;20329;-49
2023/01/23 00:46:06;;;;;;;;;;;0.00;99.90;;;;;;5098114;28;20003;-52
2023/01/23 00:48:31;;;;;;;;;;;0.00;99.90;;;;;;5098284;28;19962;-52
2023/01/23 00:50:57;;;;;;;;;;;0.00;99.90;;;;;;5098113;28;19908;-50
2023/01/23 00:53:23;;;;;;;;;;;0.00;99.90;;;;;;5098152;28;20392;-51
2023/01/23 00:55:48;;;;;;;;;;;0.00;99.90;;;;;;5097938;28;19908;-51
2023/01/23 00:58:14;;;;;;;;;;;-0.10;99.90;;;;;;5097805;28;19951;-50
2023/01/23 01:00:40;;;;;;;;;;;-0.10;99.90;;;;;;5097679;28;19920;-51
2023/01/23 01:03:06;;;;;;;;;;;-0.10;99.90;;;;;;5098258;28;19969;-51
2023/01/23 01:05:32;;;;;;;;;;;-0.10;99.90;;;;;;5097975;28;19908;-49
2023/01/23 01:07:57;;;;;;;;;;;-0.20;99.90;;;;;;5098090;28;20346;-49
2023/01/23 01:10:28;;;;;;;;;;;-0.20;99.90;;;;;;5098130;28;20715;-49
2023/01/23 01:12:54;;;;;;;;;;;-0.20;99.90;;;;;;5098270;28;20352;-51
2023/01/23 01:15:20;;;;;;;;;;;-0.20;99.90;;;;;;5098358;28;19951;-51
2023/01/23 01:17:45;;;;;;;;;;;-0.20;99.90;;;;;;5097994;28;19912;-49
2023/01/23 01:20:11;;;;;;;;;;;-0.30;99.90;;;;;;5098011;28;19908;-51
2023/01/23 01:22:37;;;;;;;;;;;-0.30;99.90;;;;;;5097983;28;19931;-50
2023/01/23 01:25:03;;;;;;;;;;;-0.30;99.90;;;;;;5098043;28;19912;-50
2023/01/23 01:27:28;;;;;;;;;;;-0.30;99.90;;;;;;5098193;28;20313;-49
2023/01/23 01:29:54;;;;;;;;;;;-0.30;99.90;;;;;;5097738;28;19908;-51
2023/01/23 01:32:20;;;;;;;;;;;-0.30;99.90;;;;;;5097703;28;19953;-49
2023/01/23 01:34:45;;;;;;;;;;;-0.30;99.90;;;;;;5097701;28;20337;-49
2023/01/23 01:37:11;;;;;;;;;;;-0.30;99.90;;;;;;5097861;28;19915;-52
2023/01/23 01:39:36;;;;;;;;;;;-0.30;99.90;;;;;;5097616;28;19908;-55
2023/01/23 01:42:02;;;;;;;;;;;-0.30;99.90;;;;;;5096339;28;19931;-51
2023/01/23 01:44:48;;;;;;;;;;;-0.30;99.90;;;;;;5097742;28;19912;-49
2023/01/23 01:47:14;;;;;;;;;;;-0.40;99.90;;;;;;5097663;28;19937;-49
2023/01/23 01:49:40;;;;;;;;;;;-0.40;99.90;;;;;;5098152;28;19947;-51
2023/01/23 01:52:07;;;;;;;;;;;-0.40;99.90;;;;;;5097595;28;20272;-49
2023/01/23 01:54:52;;;;;;;;;;;-0.40;99.90;;;;;;5097480;28;20368;-50
2023/01/23 01:57:17;;;;;;;;;;;-0.40;99.90;;;;;;5097889;28;21067;-54
2023/01/23 01:59:46;;;;;;;;;;;-0.50;99.90;;;;;;5097294;28;19935;-50
2023/01/23 02:02:14;;;;;;;;;;;-0.50;99.90;;;;;;5097437;28;19935;-49
2023/01/23 02:04:46;;;;;;;;;;;-0.50;99.90;;;;;;5098579;28;19934;-51
2023/01/23 02:07:19;;;;;;;;;;;-0.50;99.90;;;;;;5100842;28;19915;-51
2023/01/23 02:09:45;;;;;;;;;;;-0.50;99.90;;;;;;5101362;28;20339;-50
2023/01/23 02:12:11;;;;;;;;;;;-0.50;99.90;;;;;;5100843;28;19915;-49
2023/01/23 02:14:37;;;;;;;;;;;-0.40;99.90;;;;;;5100888;28;19908;-51
2023/01/23 02:17:02;;;;;;;;;;;-0.50;99.90;;;;;;5101143;28;19909;-51
2023/01/23 02:19:43;;;;;;;;;;;-0.40;99.90;;;;;;5100766;28;19922;-52
2023/01/23 02:22:21;;;;;;;;;;;-0.40;99.90;;;;;;5100976;28;20598;-51
2023/01/23 02:24:57;;;;;;;;;;;-0.40;99.90;;;;;;5101027;28;19938;-50
2023/01/23 02:27:22;;;;;;;;;;;-0.50;99.90;;;;;;5100451;28;19908;-52
2023/01/23 02:29:50;;;;;;;;;;;-0.50;99.90;;;;;;5100642;28;20264;-49
2023/01/23 02:32:18;;;;;;;;;;;-0.50;99.90;;;;;;5100641;28;19912;-51
2023/01/23 02:34:44;;;;;;;;;;;-0.50;99.90;;;;;;5100446;28;19955;-55
2023/01/23 02:37:10;;;;;;;;;;;-0.50;99.90;;;;;;5100230;28;19909;-49
2023/01/23 02:39:36;;;;;;;;;;;-0.50;99.90;;;;;;5100618;28;19919;-49
2023/01/23 02:42:02;;;;;;;;;;;-0.50;99.90;;;;;;5100641;28;19908;-49
2023/01/23 02:44:30;;;;;;;;;;;-0.50;99.90;;;;;;5100237;28;19996;-52
2023/01/23 02:46:57;;;;;;;;;;;-0.50;99.90;;;;;;5100034;28;20256;-52
2023/01/23 02:49:23;;;;;;;;;;;-0.50;99.90;;;;;;5100700;28;19954;-51
2023/01/23 02:51:49;;;;;;;;;;;-0.50;99.90;;;;;;5100221;28;19908;-52
2023/01/23 02:54:15;;;;;;;;;;;-0.50;99.90;;;;;;5100478;28;19927;-51
2023/01/23 02:56:41;;;;;;;;;;;-0.50;99.90;;;;;;5100236;28;20393;-50
2023/01/23 03:01:52;;;;;;;;;;;-0.50;99.90;;;;;;5100096;28;19933;-52
2023/01/23 03:04:17;;;;;;;;;;;-0.60;99.90;;;;;;5099899;28;20433;-49
2023/01/23 03:06:43;;;;;;;;;;;-0.60;99.90;;;;;;5099690;28;19922;-50
2023/01/23 03:09:10;;;;;;;;;;;-0.60;99.90;;;;;;5099883;28;19909;-51
2023/01/23 03:11:37;;;;;;;;;;;-0.60;99.90;;;;;;5099768;28;19955;-49
2023/01/23 03:14:03;;;;;;;;;;;-0.70;99.90;;;;;;5099916;28;20229;-48
2023/01/23 03:16:28;;;;;;;;;;;-0.70;99.90;;;;;;5098856;28;19927;-50
2023/01/23 03:18:56;;;;;;;;;;;-0.70;99.90;;;;;;5100554;28;19922;-51
2023/01/23 03:21:22;;;;;;;;;;;-0.70;99.90;;;;;;5099636;28;19912;-53
2023/01/23 03:23:47;;;;;;;;;;;-0.70;99.90;;;;;;5099564;28;19912;-51
2023/01/23 03:26:13;;;;;;;;;;;-0.70;99.90;;;;;;5099679;28;19915;-49
2023/01/23 03:31:23;;;;;;;;;;;-0.70;99.90;;;;;;5099236;28;19931;-52
2023/01/23 03:33:48;;;;;;;;;;;-0.70;99.90;;;;;;5099569;28;19908;-49
2023/01/23 03:36:14;;;;;;;;;;;-0.70;99.90;;;;;;5099657;28;19908;-49
2023/01/23 03:41:23;;;;;;;;;;;-0.80;99.90;;;;;;5099499;28;19944;-49
2023/01/23 03:41:28;;;;;;;;;;;-0.80;99.90;;;;;;5099107;28;19909;-49
2023/01/23 03:43:54;;;;;;;;;;;-0.80;99.90;;;;;;5098872;28;19961;-49
2023/01/23 03:46:20;;;;;;;;;;;-0.80;99.90;;;;;;5099302;28;19908;-49
2023/01/23 03:48:45;;;;;;;;;;;-0.80;99.90;;;;;;5099137;28;19957;-51
2023/01/23 03:51:11;;;;;;;;;;;-0.80;99.90;;;;;;5098971;28;19908;-48
2023/01/23 03:53:36;;;;;;;;;;;-0.80;99.90;;;;;;5099299;28;19961;-51
2023/01/23 03:56:02;;;;;;;;;;;-0.80;99.90;;;;;;5098970;28;19908;-50
2023/01/23 03:58:29;;;;;;;;;;;-0.80;99.90;;;;;;5099043;28;20387;-49
2023/01/23 04:00:55;;;;;;;;;;;-0.80;99.90;;;;;;5098698;28;19920;-49
2023/01/23 04:03:21;;;;;;;;;;;-0.80;99.90;;;;;;5098765;28;19918;-54
2023/01/23 04:05:46;;;;;;;;;;;-0.80;99.90;;;;;;5099195;28;20262;-49
2023/01/23 04:08:12;;;;;;;;;;;-0.80;99.90;;;;;;5098925;28;19909;-50
2023/01/23 04:10:37;;;;;;;;;;;-0.80;99.90;;;;;;5099040;28;19908;-50
2023/01/23 04:13:03;;;;;;;;;;;-0.80;99.90;;;;;;5098872;28;19912;-51
2023/01/23 04:15:30;;;;;;;;;;;-0.80;99.90;;;;;;5098669;28;19915;-53
2023/01/23 04:17:56;;;;;;;;;;;-0.80;99.90;;;;;;5098739;28;19915;-49
2023/01/23 04:20:22;;;;;;;;;;;-0.80;99.90;;;;;;5098809;28;19994;-49
2023/01/23 04:22:47;;;;;;;;;;;-0.80;99.90;;;;;;5098645;28;19961;-49
2023/01/23 04:25:13;;;;;;;;;;;-0.80;99.90;;;;;;5098651;28;19908;-52
2023/01/23 04:27:38;;;;;;;;;;;-0.80;99.90;;;;;;5098523;28;19915;-48
2023/01/23 04:30:04;;;;;;;;;;;-0.80;99.90;;;;;;5098562;28;19908;-50
2023/01/23 04:32:30;;;;;;;;;;;-0.80;99.90;;;;;;5098735;28;19916;-53
2023/01/23 04:34:55;;;;;;;;;;;-0.80;99.90;;;;;;5098136;28;19934;-49
2023/01/23 04:37:21;;;;;;;;;;;-0.80;99.90;;;;;;5098331;28;19916;-49
2023/01/23 04:39:47;;;;;;;;;;;-0.80;99.90;;;;;;5098613;28;19908;-50
2023/01/23 04:42:12;;;;;;;;;;;-0.80;99.90;;;;;;5098656;28;20286;-49
2023/01/23 04:44:38;;;;;;;;;;;-0.80;99.90;;;;;;5098273;28;19919;-49
2023/01/23 04:47:03;;;;;;;;;;;-0.90;99.90;;;;;;5098095;28;19908;-49
2023/01/23 04:49:29;;;;;;;;;;;-0.90;99.90;;;;;;5098205;28;19947;-49
2023/01/23 04:51:54;;;;;;;;;;;-0.90;99.90;;;;;;5098567;28;19997;-49
2023/01/23 04:54:20;;;;;;;;;;;-0.90;99.90;;;;;;5098141;28;19998;-48
2023/01/23 04:56:46;;;;;;;;;;;-0.90;99.90;;;;;;5098230;28;19908;-50
2023/01/23 04:59:13;;;;;;;;;;;-0.90;99.90;;;;;;5098093;28;19912;-50
2023/01/23 05:01:39;;;;;;;;;;;-0.90;99.90;;;;;;5097932;28;19923;-50
2023/01/23 05:04:04;;;;;;;;;;;-1.00;99.90;;;;;;5098151;28;19912;-51
2023/01/23 05:06:30;;;;;;;;;;;-1.00;99.90;;;;;;5097883;28;20271;-50
2023/01/23 05:08:56;;;;;;;;;;;-1.00;99.90;;;;;;5098374;28;19947;-49
2023/01/23 05:11:21;;;;;;;;;;;-1.00;99.90;;;;;;5098553;28;20049;-51
2023/01/23 05:13:47;;;;;;;;;;;-1.00;99.90;;;;;;5098127;28;19908;-51
2023/01/23 05:16:13;;;;;;;;;;;-1.10;99.90;;;;;;5098289;28;19993;-52
2023/01/23 05:18:39;;;;;;;;;;;-1.10;99.90;;;;;;5097878;28;19908;-51
2023/01/23 05:21:04;;;;;;;;;;;-1.00;99.90;;;;;;5098048;28;19943;-53
2023/01/23 05:23:30;;;;;;;;;;;-1.10;99.90;;;;;;5097741;28;19912;-53
2023/01/23 05:25:55;;;;;;;;;;;-1.10;99.90;;;;;;5097934;28;19938;-50
2023/01/23 05:28:21;;;;;;;;;;;-1.10;99.90;;;;;;5097922;28;19908;-50
2023/01/23 05:30:47;;;;;;;;;;;-1.20;99.90;;;;;;5097937;28;19919;-50
2023/01/23 05:33:12;;;;;;;;;;;-1.20;99.90;;;;;;5097937;28;20287;-51
2023/01/23 05:35:38;;;;;;;;;;;-0.30;99.90;;;;;;5097606;28;19908;-53
2023/01/23 05:38:04;;;;;;;;;;;-1.20;99.90;;;;;;5097826;28;19909;-50
2023/01/23 05:40:30;;;;;;;;;;;-1.20;99.90;;;;;;5100531;28;20001;-49
2023/01/23 05:42:55;;;;;;;;;;;-1.20;99.90;;;;;;5101898;28;19912;-51
2023/01/23 05:45:21;;;;;;;;;;;-1.30;99.90;;;;;;5101775;28;19915;-51
2023/01/23 05:47:46;;;;;;;;;;;-1.30;99.90;;;;;;5101434;28;20389;-51
2023/01/23 05:50:17;;;;;;;;;;;-1.30;99.90;;;;;;5101671;28;19908;-49
2023/01/23 05:52:43;;;;;;;;;;;-1.30;99.90;;;;;;5101237;28;19908;-50
2023/01/23 05:55:09;;;;;;;;;;;-1.30;99.90;;;;;;5101762;28;19908;-53
2023/01/23 05:57:34;;;;;;;;;;;-1.20;99.90;;;;;;5101165;28;19909;-53
2023/01/23 06:00:00;;;;;;;;;;;-1.30;99.90;;;;;;5101346;28;19920;-50
2023/01/23 06:02:26;;;;;;;;;;;-1.30;99.90;;;;;;5101497;28;19909;-51
2023/01/23 06:04:51;;;;;;;;;;;-1.30;99.90;;;;;;5101095;28;20008;-52
2023/01/23 06:07:19;;;;;;;;;;;-1.40;99.90;;;;;;5100226;28;20199;-49
2023/01/23 06:09:45;;;;;;;;;;;-1.40;99.90;;;;;;5101296;28;19912;-51
2023/01/23 06:12:10;;;;;;;;;;;-1.40;99.90;;;;;;5101071;28;19943;-49
2023/01/23 06:14:36;;;;;;;;;;;-1.40;99.90;;;;;;5100885;28;19954;-51
2023/01/23 06:17:02;;;;;;;;;;;-1.40;99.90;;;;;;5101041;28;19958;-51
2023/01/23 06:19:28;;;;;;;;;;;-1.40;99.90;;;;;;5100864;28;19909;-50
2023/01/23 06:21:53;;;;;;;;;;;-1.40;99.90;;;;;;5101283;28;19915;-51
2023/01/23 06:24:19;;;;;;;;;;;-1.40;99.90;;;;;;5100563;28;19912;-55
2023/01/23 06:26:44;;;;;;;;;;;-1.30;99.90;;;;;;5101003;28;19908;-51
2023/01/23 06:29:10;;;;;;;;;;;-1.30;99.90;;;;;;5100784;28;19908;-51
2023/01/23 06:31:36;;;;;;;;;;;-1.30;99.90;;;;;;5100877;28;19908;-52
2023/01/23 06:34:01;;;;;;;;;;;-1.30;99.90;;;;;;5100548;28;19916;-53
2023/01/23 06:36:27;;;;;;;;;;;-1.30;99.90;;;;;;5100860;28;19908;-52
2023/01/23 06:38:53;;;;;;;;;;;-1.40;99.90;;;;;;5100677;28;19908;-52
2023/01/23 06:41:18;;;;;;;;;;;-1.40;99.90;;;;;;5100456;28;20003;-53
2023/01/23 06:43:44;;;;;;;;;;;-1.40;99.90;;;;;;5100167;28;20367;-52
2023/01/23 06:46:10;;;;;;;;;;;-0.50;99.90;;;;;;5100655;28;19908;-52
2023/01/23 06:48:36;;;;;;;;;;;-1.50;99.90;;;;;;5100063;28;19912;-58
2023/01/23 06:51:02;;;;;;;;;;;-1.20;99.90;;;;;;5098499;28;19971;-52
2023/01/23 06:53:28;;;;;;;;;;;-1.50;99.90;;;;;;5100392;28;19949;-51
2023/01/23 06:55:57;;;;;;;;;;;-1.40;99.90;;;;;;5100227;28;19915;-55
2023/01/23 06:58:23;;;;;;;;;;;-1.40;99.90;;;;;;5100079;28;19973;-52
2023/01/23 07:00:49;;;;;;;;;;;-1.40;99.90;;;;;;5099984;28;19965;-52
2023/01/23 07:03:15;;;;;;;;;;;-1.40;99.90;;;;;;5099834;28;20495;-54
2023/01/23 07:05:42;;;;;;;;;;;-1.40;99.90;;;;;;5100276;28;19909;-52
2023/01/23 07:08:08;;;;;;;;;;;-1.40;99.90;;;;;;5100086;28;19916;-51
2023/01/23 07:10:36;;;;;;;;;;;-1.40;99.90;;;;;;5099829;28;20386;-54
2023/01/23 07:13:05;;;;;;;;;;;-1.40;99.90;;;;;;5099877;28;19915;-52
2023/01/23 07:15:31;;;;;;;;;;;-1.40;99.90;;;;;;5100120;28;19916;-55
2023/01/23 07:17:56;;;;;;;;;;;-1.50;99.90;;;;;;5100002;28;19908;-53
2023/01/23 07:20:26;;;;;;;;;;;-1.50;99.90;;;;;;5099667;28;19908;-52
2023/01/23 07:22:52;;;;;;;;;;;-1.50;99.90;;;;;;5099654;28;19915;-53
2023/01/23 07:25:18;;;;;;;;;;;-1.50;99.90;;;;;;5099478;28;19970;-56
2023/01/23 07:27:43;;;;;;;;;;;-1.50;99.90;;;;;;5099472;28;20322;-54
2023/01/23 07:30:09;;;;;;;;;;;-1.50;99.90;;;;;;5099816;28;19962;-55
2023/01/23 07:32:35;;;;;;;;;;;-1.50;99.90;;;;;;5099746;28;19908;-53
2023/01/23 07:35:00;;;;;;;;;;;-1.50;99.90;;;;;;5099545;28;19908;-55
2023/01/23 07:37:26;;;;;;;;;;;-1.50;99.90;;;;;;5099561;28;19912;-54
2023/01/23 07:39:52;;;;;;;;;;;-1.50;99.90;;;;;;5099470;28;19909;-56
2023/01/23 07:42:18;;;;;;;;;;;-1.40;99.90;;;;;;5099268;28;19915;-56
2023/01/23 07:44:43;;;;;;;;;;;-1.40;99.90;;;;;;5099036;28;19939;-52
2023/01/23 07:47:09;;;;;;;;;;;-1.30;99.90;;;;;;5099382;28;19914;-53
2023/01/23 07:49:34;;;;;;;;;;;-1.40;99.90;;;;;;5099102;28;19908;-54
2023/01/23 07:52:00;;;;;;;;;;;-1.30;99.90;;;;;;5099085;28;19908;-56
2023/01/23 07:54:26;;;;;;;;;;;-1.30;99.90;;;;;;5099249;28;19955;-54
2023/01/23 07:56:51;;;;;;;;;;;-1.30;99.90;;;;;;5098910;28;19908;-50
2023/01/23 07:59:17;;;;;;;;;;;-1.30;99.90;;;;;;5098984;28;19917;-52
2023/01/23 08:01:43;;;;;;;;;;;-1.30;99.90;;;;;;5098464;28;19917;-53
2023/01/23 08:04:08;;;;;;;;;;;-1.30;99.90;;;;;;5098516;28;21158;-55
2023/01/23 08:06:34;;;;;;;;;;;-1.20;99.90;;;;;;5098553;28;20469;-57
2023/01/23 08:09:00;;;;;;;;;;;-1.20;99.90;;;;;;5098908;28;19908;-54
2023/01/23 08:11:26;;;;;;;;;;;-1.20;99.90;;;;;;5098637;28;19934;-54
2023/01/23 08:13:52;;;;;;;;;;;-1.10;99.90;;;;;;5098782;28;19908;-53
2023/01/23 08:16:18;;;;;;;;;;;-1.10;99.90;;;;;;5098668;28;20395;-55
2023/01/23 08:18:43;;;;;;;;;;;-1.10;99.90;;;;;;5098356;28;19957;-55
2023/01/23 08:21:09;;;;;;;;;;;-1.00;99.90;;;;;;5098512;28;19986;-55
2023/01/23 08:23:35;;;;;;;;;;;-1.00;99.90;;;;;;5098445;28;19912;-57
2023/01/23 08:26:02;;;;;;;;;;;-0.90;99.90;;;;;;5098394;28;19916;-57
2023/01/23 08:28:28;;;;;;;;;;;-0.90;99.90;;;;;;5098624;28;19915;-53
2023/01/23 08:30:54;;;;;;;;;;;-0.90;99.90;;;;;;5098118;28;19908;-57
2023/01/23 08:33:20;;;;;;;;;;;-0.80;99.90;;;;;;5098465;28;19912;-53
2023/01/23 08:35:49;;;;;;;;;;;-0.80;99.90;;;;;;5098048;28;19915;-57
2023/01/23 08:38:16;;;;;;;;;;;-0.70;99.90;;;;;;5098116;28;19908;-56
2023/01/23 08:40:42;;;;;;;;;;;-0.60;99.90;;;;;;5098231;28;19930;-54
2023/01/23 08:43:09;;;;;;;;;;;-0.50;99.90;;;;;;5098303;28;20355;-56
2023/01/23 08:45:35;;;;;;;;;;;-0.40;99.90;;;;;;5098116;28;19958;-54
2023/01/23 08:48:01;;;;;;;;;;;-0.30;99.90;;;;;;5097774;28;19908;-55
2023/01/23 08:50:27;;;;;;;;;;;-0.20;99.90;;;;;;5097920;28;19908;-54
2023/01/23 08:52:53;;;;;;;;;;;-0.10;99.90;;;;;;5097661;28;20383;-55
2023/01/23 08:55:19;;;;;;;;;;;0.20;99.90;;;;;;5097723;28;19908;-56
2023/01/23 08:57:44;;;;;;;;;;;1.50;99.90;;;;;;5098123;28;19908;-54
2023/01/23 09:00:10;;;;;;;;;;;1.30;99.90;;;;;;5097627;28;20015;-53
2023/01/23 09:02:36;;;;;;;;;;;2.10;99.90;;;;;;5098278;28;20003;-53
2023/01/23 09:05:02;;;;;;;;;;;2.30;99.90;;;;;;5097920;28;20271;-55
2023/01/23 09:07:27;;;;;;;;;;;2.30;99.90;;;;;;5097468;28;19908;-54
2023/01/23 09:09:53;;;;;;;;;;;2.50;99.90;;;;;;5097675;28;20366;-54
2023/01/23 09:12:19;;;;;;;;;;;2.90;99.90;;;;;;5097524;28;19912;-55
2023/01/23 09:14:45;;;;;;;;;;;3.10;99.90;;;;;;5101075;28;19915;-57
2023/01/23 09:17:10;;;;;;;;;;;3.10;99.90;;;;;;5102112;28;19908;-54
2023/01/23 09:19:36;;;;;;;;;;;3.30;99.90;;;;;;5102364;28;19916;-54
2023/01/23 09:22:02;;;;;;;;;;;3.40;99.90;;;;;;5101837;28;19945;-55
2023/01/23 09:24:28;;;;;;;;;;;3.50;99.90;;;;;;5101470;28;19912;-55
2023/01/23 09:26:53;;;;;;;;;;;3.70;99.90;;;;;;5101915;28;20018;-56
2023/01/23 09:29:19;;;;;;;;;;;4.30;99.90;;;;;;5101925;28;19909;-53
2023/01/23 09:31:44;;;;;;;;;;;3.70;99.90;;;;;;5101571;28;19916;-56
2023/01/23 09:34:10;;;;;;;;;;;3.70;99.90;;;;;;5101831;28;19908;-56
2023/01/23 09:36:36;;;;;;;;;;;4.00;99.90;;;;;;5101798;28;20436;-56
2023/01/23 09:39:02;;;;;;;;;;;4.50;99.90;;;;;;5100131;28;19908;-57
2023/01/23 09:41:29;;;;;;;;;;;4.90;99.90;;;;;;5101152;28;19950;-56
2023/01/23 09:43:59;;;;;;;;;;;5.10;99.90;;;;;;5101476;28;19986;-57
2023/01/23 09:46:46;;;;;;;;;;;5.20;99.90;;;;;;5101121;28;20352;-53
2023/01/23 09:49:11;;;;;;;;;;;5.50;99.90;;;;;;5101558;28;19908;-56
2023/01/23 09:51:37;;;;;;;;;;;5.50;99.90;;;;;;5101258;28;19989;-53
2023/01/23 09:54:10;;;;;;;;;;;5.20;99.90;;;;;;5101401;28;20271;-52
2023/01/23 09:56:40;;;;;;;;;;;5.20;99.90;;;;;;5101070;28;20444;-56
2023/01/23 09:59:15;;;;;;;;;;;5.10;99.90;;;;;;5100808;28;19912;-56
2023/01/23 10:01:40;;;;;;;;;;;4.90;99.90;;;;;;5100942;28;19912;-54
2023/01/23 10:04:09;;;;;;;;;;;4.80;99.90;;;;;;5100706;28;19919;-54
2023/01/23 10:06:55;;;;;;;;;;;4.80;99.90;;;;;;5100907;28;19909;-53
2023/01/23 10:09:21;;;;;;;;;;;4.70;99.90;;;;;;5080199;28;19931;-55
2023/01/23 10:11:50;;;;;;;;;;;4.70;99.90;;;;;;5100808;28;20363;-56
2023/01/23 10:14:34;;;;;;;;;;;4.60;99.90;;;;;;5100863;28;20085;-53
2023/01/23 10:17:05;;;;;;;;;;;4.60;99.90;;;;;;5101017;28;19915;-54
2023/01/23 10:19:39;;;;;;;;;;;4.90;99.90;;;;;;5100835;28;19930;-53
2023/01/23 10:22:20;;;;;;;;;;;5.30;99.90;;;;;;5100586;28;19908;-53
2023/01/23 10:24:50;;;;;;;;;;;5.70;99.90;;;;;;5100323;28;20287;-52
2023/01/23 10:27:20;;;;;;;;;;;6.10;99.90;;;;;;5100609;28;20363;-55
2023/01/23 10:29:48;;;;;;;;;;;6.20;99.90;;;;;;5100634;28;20042;-52
2023/01/23 10:32:22;;;;;;;;;;;7.00;99.90;;;;;;5100462;28;20275;-55
2023/01/23 10:34:51;;;;;;;;;;;7.70;99.90;;;;;;5100367;28;20103;-56
2023/01/23 10:37:22;;;;;;;;;;;8.40;99.90;;;;;;5100786;28;19949;-57
2023/01/23 10:39:52;;;;;;;;;;;9.10;99.90;;;;;;5100294;28;19908;-57
2023/01/23 10:42:22;;;;;;;;;;;10.00;99.90;;;;;;5100224;28;19915;-57
2023/01/23 10:44:48;;;;;;;;;;;10.60;99.90;;;;;;5099894;28;20283;-55
2023/01/23 10:47:19;;;;;;;;;;;11.40;99.90;;;;;;5100421;28;19908;-56
2023/01/23 10:49:45;;;;;;;;;;;12.20;99.90;;;;;;5099907;28;19919;-56
2023/01/23 10:52:30;;;;;;;;;;;13.20;99.90;;;;;;5100178;28;19960;-58
2023/01/23 10:54:56;;;;;;;;;;;13.80;99.90;;;;;;5099939;28;20398;-55
2023/01/23 10:57:25;;;;;;;;;;;14.80;99.90;;;;;;5100029;28;19908;-58
2023/01/23 10:59:56;;;;;;;;;;;14.70;99.90;;;;;;5099782;28;19921;-57
2023/01/23 11:02:22;;;;;;;;;;;;;;;;;;5099951;28;19908;-56
2023/01/23 11:04:50;;;;;;;;;;;16.70;98.10;;;;;;5100152;28;19918;-57
2023/01/23 11:07:19;;;;;;;;;;;17.10;89.40;;;;;;5100079;28;19919;-58
2023/01/23 11:09:50;;;;;;;;;;;17.30;97.50;;;;;;5100263;28;19908;-58
2023/01/23 11:12:27;;;;;;;;;;;17.90;94.40;;;;;;5099974;28;19912;-58
2023/01/23 11:15:16;;;;;;;;;;;18.20;86.80;;;;;;5099789;28;19908;-58
2023/01/23 11:17:42;;;;;;;;;;;18.10;76.40;;;;;;5093827;28;20291;-59
2023/01/23 11:20:22;;;;;;;;;;;18.50;77.40;;;;;;5100005;28;19943;-58
2023/01/23 11:22:58;;;;;;;;;;;18.40;71.80;;;;;;5099278;28;20386;-58
2023/01/23 11:25:31;;;;;;;;;;;17.50;70.00;;;;;;5099553;28;20268;-58
2023/01/23 11:27:58;;;;;;;;;;;16.80;69.20;;;;;;5099393;28;20441;-58
2023/01/23 11:30:28;;;;;;;;;;;16.10;65.90;;;;;;5099777;28;19908;-56
2023/01/23 11:33:13;;;;;;;;;;;15.40;65.90;;;;;;5099346;28;20397;-57
2023/01/23 11:35:57;;;;;;;;;;;15.10;66.90;;;;;;5099222;28;20375;-58
2023/01/23 11:38:26;;;;;;;;;;;14.80;73.70;;;;;;5098447;28;19912;-56
2023/01/23 11:40:52;;;;;;;;;;;15.40;80.70;;;;;;5099143;28;19908;-58
2023/01/23 11:43:18;;;;;;;;;;;16.20;94.80;;;;;;5099136;28;19915;-58
2023/01/23 11:45:50;;;;;;;;;;;16.90;88.60;;;;;;5099218;28;19909;-56
2023/01/23 11:48:21;;;;;;;;;;;17.40;82.40;;;;;;5099023;28;19915;-57
2023/01/23 11:50:55;;;;;;;;;;;17.50;71.30;;;;;;5099133;28;19979;-57
2023/01/23 11:53:31;;;;;;;;;;;17.20;79.30;;;;;;5098893;28;19995;-58
2023/01/23 11:55:56;;;;;;;;;;;18.20;70.60;;;;;;5098809;28;20388;-57
2023/01/23 11:58:22;;;;;;;;;;;17.80;70.50;;;;;;5098984;28;20048;-58
2023/01/23 12:01:06;;;;;;;;;;;17.40;67.60;;;;;;5098494;28;19966;-56
2023/01/23 12:03:44;;;;;;;;;;;16.60;61.70;;;;;;5098724;28;19943;-58
2023/01/23 12:06:13;;;;;;;;;;;16.00;61.70;;;;;;5098294;28;20386;-58
2023/01/23 12:08:53;;;;;;;;;;;15.90;65.00;;;;;;5098631;28;19932;-56
2023/01/23 12:11:21;;;;;;;;;;;16.50;74.40;;;;;;5098382;28;19934;-58
2023/01/23 12:14:03;;;;;;;;;;;17.00;68.40;;;;;;5098575;28;19920;-55
2023/01/23 12:16:29;;;;;;;;;;;17.40;68.00;;;;;;5098628;28;19908;-58
2023/01/23 12:19:16;;;;;;;;;;;17.30;64.70;;;;;;5098826;28;20053;-58
2023/01/23 12:21:46;;;;;;;;;;;17.10;61.30;;;;;;5098912;28;20240;-57
2023/01/23 12:24:26;;;;;;;;;;;17.30;63.80;;;;;;5098336;28;20056;-57
2023/01/23 12:27:05;;;;;;;;;;;16.60;60.90;;;;;;5098551;28;19951;-58
2023/01/23 12:29:59;;;;;;;;;;;17.40;73.20;;;;;;5098270;28;19955;-55
2023/01/23 12:32:30;;;;;;;;;;;16.80;61.50;;;;;;5098747;28;19915;-56
2023/01/23 12:34:56;;;;;;;;;;;16.50;65.30;;;;;;5098113;28;20290;-58
2023/01/23 12:37:40;;;;;;;;;;;16.70;66.90;;;;;;5098337;28;19969;-58
2023/01/23 12:40:21;;;;;;;;;;;17.30;66.20;;;;;;5098272;28;19943;-58
2023/01/23 12:42:50;;;;;;;;;;;17.80;63.60;;;;;;5098171;28;19919;-58
2023/01/23 12:45:19;;;;;;;;;;;18.60;61.90;;;;;;5098373;28;19916;-59
2023/01/23 12:47:51;;;;;;;;;;;18.70;66.60;;;;;;5097918;28;19908;-58
2023/01/23 12:50:19;;;;;;;;;;;19.10;64.80;;;;;;5097993;28;19916;-57
2023/01/23 12:52:46;;;;;;;;;;;19.60;62.60;;;;;;5098195;28;19908;-56
2023/01/23 12:55:38;;;;;;;;;;;19.40;62.20;;;;;;5097967;28;20040;-58
2023/01/23 12:58:04;;;;;;;;;;;19.80;62.60;;;;;;5093524;28;19915;-57
2023/01/23 13:00:30;;;;;;;;;;;19.60;60.40;;;;;;5097695;28;19920;-58
2023/01/23 13:03:07;;;;;;;;;;;19.70;60.60;;;;;;5098073;28;19919;-58
2023/01/23 13:05:41;;;;;;;;;;;20.00;60.60;;;;;;5097852;28;19912;-59
2023/01/23 13:08:30;;;;;;;;;;;19.60;57.80;;;;;;5097973;28;19908;-58
2023/01/23 13:13:40;;;;;;;;;;;19.90;55.30;;;;;;5097856;28;19930;-56
2023/01/23 13:16:08;;;;;;;;;;;19.30;56.10;;;;;;5097864;28;19909;-59
2023/01/23 13:21:59;;;;;;;;;;;19.20;55.80;;;;;;5098229;28;19908;-58
2023/01/23 13:25:08;;;;;;;;;;;18.20;61.20;;;;;;5097669;28;20394;-58
2023/01/23 13:27:23;;;;;;;;;;;18.20;59.80;;;;;;5097398;28;19908;-59
2023/01/23 13:29:49;;;;;;;;;;;18.80;59.40;;;;;;5097900;28;19995;-59
2023/01/23 13:32:20;;;;;;;;;;;18.50;59.60;;;;;;5097682;28;19951;-58
2023/01/23 13:34:46;;;;;;;;;;;18.80;63.00;;;;;;5097569;28;19912;-58
2023/01/23 13:37:38;;;;;;;;;;;18.40;54.60;;;;;;5097860;28;19958;-58
2023/01/23 13:40:13;;;;;;;;;;;18.10;59.30;;;;;;5081295;28;20260;-58
2023/01/23 13:42:38;;;;;;;;;;;17.60;59.50;;;;;;5097521;28;19991;-55
2023/01/23 13:45:19;;;;;;;;;;;17.40;56.80;;;;;;5097689;28;19962;-59
2023/01/23 13:50:40;;;;;;;;;;;17.20;60.50;;;;;;5097545;28;19914;-58
2023/01/23 13:59:02;;;;;;;;;;;15.90;56.70;;;;;;5097287;28;20328;-58
2023/01/23 14:07:41;;;;;;;;;;;15.50;60.00;;;;;;5101193;28;19915;-57
2023/01/23 14:10:11;;;;;;;;;;;15.30;59.00;;;;;;5100913;28;20395;-58
2023/01/23 14:12:37;;;;;;;;;;;15.30;60.30;;;;;;5100998;28;19915;-57
2023/01/23 14:18:00;;;;;;;;;;;16.30;61.70;;;;;;5100992;28;19915;-59
2023/01/23 14:20:25;;;;;;;;;;;15.40;60.50;;;;;;5100772;28;19951;-58
2023/01/23 14:22:53;;;;;;;;;;;15.80;58.00;;;;;;5100964;28;19931;-59
2023/01/23 14:25:19;;;;;;;;;;;16.10;60.60;;;;;;5100699;28;19961;-59
2023/01/23 14:27:45;;;;;;;;;;;16.20;58.00;;;;;;5100670;28;19912;-58
2023/01/23 14:30:15;;;;;;;;;;;15.50;57.10;;;;;;5100593;28;19908;-58
2023/01/23 14:32:41;;;;;;;;;;;15.60;60.10;;;;;;5100401;28;19953;-58
2023/01/23 14:35:21;;;;;;;;;;;15.60;57.60;;;;;;5100550;28;19908;-58
2023/01/23 14:37:47;;;;;;;;;;;15.20;60.20;;;;;;5100740;28;19916;-59
2023/01/23 14:40:15;;;;;;;;;;;15.40;56.00;;;;;;5100390;28;19915;-58
2023/01/23 14:42:42;;;;;;;;;;;15.10;58.30;;;;;;5100395;28;19915;-58
2023/01/23 14:45:09;;;;;;;;;;;15.20;60.00;;;;;;5100290;28;19958;-58
2023/01/23 14:47:45;;;;;;;;;;;15.50;61.10;;;;;;5100340;28;19994;-59
2023/01/23 14:50:15;;;;;;;;;;;15.60;57.10;;;;;;5099896;28;19947;-58
2023/01/23 14:52:41;;;;;;;;;;;14.90;55.00;;;;;;5098545;28;19912;-58
2023/01/23 14:55:23;;;;;;;;;;;14.40;58.70;;;;;;5100158;28;19908;-58